sensor_id;sensor_type;location;lat;lon;timestamp;pressure;altitude;pressure_sealevel;temperature;humidity
67052;BME280;53957;47.222;18.670;2023-03-01T00:00:22;101275.62;;;2.90;100.00
67052;BME280;53957;47.222;18.670;2023-03-01T00:03:35;101268.75;;;2.82;100.00
67052;BME280;53957;47.222;18.670;2023-03-01T00:06:39;101269.56;;;2.76;100.00
67052;BME280;53957;47.222;18.670;2023-03-01T00:09:43;101276.03;;;2.60;100.00
67052;BME280;53957;47.222;18.670;2023-03-01T00:13:08;101281.50;;;2.92;100.00
67052;BME280;53957;47.222;18.670;2023-03-01T00:16:38;101277.16;;;3.25;100.00
67052;BME280;53957;47.222;18.670;2023-03-01T00:20:21;101276.44;;;2.90;100.00
67052;BME280;53957;47.222;18.670;2023-03-01T00:23:47;101279.91;;;2.71;100.00
67052;BME280;53957;47.222;18.670;2023-03-01T00:27:11;101280.09;;;2.76;100.00
67052;BME280;53957;47.222;18.670;2023-03-01T00:30:29;101276.25;;;2.65;100.00
67052;BME280;53957;47.222;18.670;2023-03-01T00:33:32;101280.53;;;2.73;100.00
67052;BME280;53957;47.222;18.670;2023-03-01T00:37:17;101279.28;;;2.69;100.00
67052;BME280;53957;47.222;18.670;2023-03-01T00:40:22;101270.50;;;3.09;100.00
67052;BME280;53957;47.222;18.670;2023-03-01T00:43:25;101276.41;;;2.97;100.00
67052;BME280;53957;47.222;18.670;2023-03-01T00:47:08;101264.72;;;2.73;100.00
67052;BME280;53957;47.222;18.670;2023-03-01T00:50:31;101268.56;;;2.64;100.00
67052;BME280;53957;47.222;18.670;2023-03-01T00:53:55;101263.47;;;2.82;100.00
67052;BME280;53957;47.222;18.670;2023-03-01T00:57:03;101257.19;;;2.56;100.00
67052;BME280;53957;47.222;18.670;2023-03-01T01:00:18;101250.91;;;2.71;100.00
67052;BME280;53957;47.222;18.670;2023-03-01T01:04:08;101246.84;;;2.75;100.00
67052;BME280;53957;47.222;18.670;2023-03-01T01:07:13;101245.66;;;2.71;100.00
67052;BME280;53957;47.222;18.670;2023-03-01T01:10:19;101247.44;;;3.04;100.00
67052;BME280;53957;47.222;18.670;2023-03-01T01:13:30;101242.81;;;2.66;100.00
67052;BME280;53957;47.222;18.670;2023-03-01T01:16:38;101243.63;;;2.73;100.00
67052;BME280;53957;47.222;18.670;2023-03-01T01:20:01;101238.78;;;2.63;100.00
67052;BME280;53957;47.222;18.670;2023-03-01T01:23:24;101246.06;;;2.68;100.00
67052;BME280;53957;47.222;18.670;2023-03-01T01:26:30;101236.94;;;2.70;100.00
67052;BME280;53957;47.222;18.670;2023-03-01T01:30:10;101242.00;;;2.79;100.00
67052;BME280;53957;47.222;18.670;2023-03-01T01:33:17;101233.03;;;3.06;100.00
67052;BME280;53957;47.222;18.670;2023-03-01T01:36:21;101236.31;;;2.62;100.00
67052;BME280;53957;47.222;18.670;2023-03-01T01:39:29;101229.41;;;2.74;100.00
67052;BME280;53957;47.222;18.670;2023-03-01T01:42:37;101223.75;;;2.77;100.00
67052;BME280;53957;47.222;18.670;2023-03-01T01:45:44;101213.81;;;2.72;100.00
67052;BME280;53957;47.222;18.670;2023-03-01T01:48:52;101213.63;;;2.74;100.00
67052;BME280;53957;47.222;18.670;2023-03-01T01:52:30;101210.00;;;2.68;100.00
67052;BME280;53957;47.222;18.670;2023-03-01T01:56:18;101207.34;;;2.62;100.00
67052;BME280;53957;47.222;18.670;2023-03-01T01:59:43;101210.22;;;2.53;100.00
67052;BME280;53957;47.222;18.670;2023-03-01T02:02:56;101203.13;;;2.54;100.00
67052;BME280;53957;47.222;18.670;2023-03-01T02:06:49;101193.00;;;2.37;100.00
67052;BME280;53957;47.222;18.670;2023-03-01T02:09:56;101185.53;;;2.41;100.00
67052;BME280;53957;47.222;18.670;2023-03-01T02:13:02;101192.19;;;2.23;100.00
67052;BME280;53957;47.222;18.670;2023-03-01T02:16:26;101193.41;;;2.41;100.00
67052;BME280;53957;47.222;18.670;2023-03-01T02:22:44;101194.41;;;2.13;100.00
67052;BME280;53957;47.222;18.670;2023-03-01T02:29:09;101185.72;;;2.19;100.00
67052;BME280;53957;47.222;18.670;2023-03-01T02:32:26;101177.03;;;2.19;100.00
67052;BME280;53957;47.222;18.670;2023-03-01T02:35:49;101180.47;;;2.13;100.00
67052;BME280;53957;47.222;18.670;2023-03-01T02:39:37;101182.28;;;2.19;100.00
67052;BME280;53957;47.222;18.670;2023-03-01T02:42:57;101184.50;;;2.08;100.00
67052;BME280;53957;47.222;18.670;2023-03-01T02:46:43;101178.03;;;2.18;100.00
67052;BME280;53957;47.222;18.670;2023-03-01T02:49:49;101174.56;;;2.31;100.00
67052;BME280;53957;47.222;18.670;2023-03-01T02:53:26;101174.19;;;2.34;100.00
67052;BME280;53957;47.222;18.670;2023-03-01T02:56:45;101172.75;;;2.38;100.00
67052;BME280;53957;47.222;18.670;2023-03-01T03:00:17;101173.97;;;2.35;100.00
67052;BME280;53957;47.222;18.670;2023-03-01T03:03:25;101180.25;;;2.54;100.00
67052;BME280;53957;47.222;18.670;2023-03-01T03:06:31;101171.53;;;2.27;100.00
67052;BME280;53957;47.222;18.670;2023-03-01T03:09:54;101175.16;;;2.53;100.00
67052;BME280;53957;47.222;18.670;2023-03-01T03:13:15;101165.63;;;2.52;100.00
67052;BME280;53957;47.222;18.670;2023-03-01T03:16:45;101160.59;;;2.37;100.00
67052;BME280;53957;47.222;18.670;2023-03-01T03:19:57;101152.09;;;2.28;100.00
67052;BME280;53957;47.222;18.670;2023-03-01T03:23:01;101152.72;;;2.30;100.00
67052;BME280;53957;47.222;18.670;2023-03-01T03:26:06;101151.87;;;2.30;100.00
67052;BME280;53957;47.222;18.670;2023-03-01T03:29:09;101151.69;;;2.38;100.00
67052;BME280;53957;47.222;18.670;2023-03-01T03:32:32;101143.78;;;2.38;100.00
67052;BME280;53957;47.222;18.670;2023-03-01T03:35:54;101144.19;;;2.28;100.00
67052;BME280;53957;47.222;18.670;2023-03-01T03:39:39;101139.94;;;2.47;100.00
67052;BME280;53957;47.222;18.670;2023-03-01T03:43:03;101142.56;;;2.47;100.00
67052;BME280;53957;47.222;18.670;2023-03-01T03:46:15;101135.91;;;2.31;100.00
67052;BME280;53957;47.222;18.670;2023-03-01T03:49:19;101132.25;;;2.39;100.00
67052;BME280;53957;47.222;18.670;2023-03-01T03:52:26;101124.97;;;2.28;100.00
67052;BME280;53957;47.222;18.670;2023-03-01T03:55:38;101123.72;;;2.37;100.00
67052;BME280;53957;47.222;18.670;2023-03-01T03:58:52;101123.72;;;2.37;100.00
67052;BME280;53957;47.222;18.670;2023-03-01T04:01:55;101126.38;;;2.37;100.00
67052;BME280;53957;47.222;18.670;2023-03-01T04:05:27;101134.28;;;2.30;100.00
67052;BME280;53957;47.222;18.670;2023-03-01T04:08:33;101135.50;;;2.41;100.00
67052;BME280;53957;47.222;18.670;2023-03-01T04:11:36;101133.47;;;2.30;100.00
67052;BME280;53957;47.222;18.670;2023-03-01T04:14:51;101135.09;;;2.31;100.00
67052;BME280;53957;47.222;18.670;2023-03-01T04:17:59;101127.16;;;2.44;100.00
67052;BME280;53957;47.222;18.670;2023-03-01T04:21:22;101136.69;;;2.45;100.00
67052;BME280;53957;47.222;18.670;2023-03-01T04:24:26;101128.41;;;2.48;100.00
67052;BME280;53957;47.222;18.670;2023-03-01T04:27:34;101137.09;;;2.49;100.00
67052;BME280;53957;47.222;18.670;2023-03-01T04:31:03;101139.53;;;2.44;100.00
67052;BME280;53957;47.222;18.670;2023-03-01T04:34:15;101133.03;;;2.46;100.00
67052;BME280;53957;47.222;18.670;2023-03-01T04:37:20;101135.06;;;2.44;100.00
67052;BME280;53957;47.222;18.670;2023-03-01T04:40:24;101137.94;;;2.36;100.00
67052;BME280;53957;47.222;18.670;2023-03-01T04:43:50;101137.12;;;2.42;100.00
67052;BME280;53957;47.222;18.670;2023-03-01T04:46:53;101129.59;;;2.46;100.00
67052;BME280;53957;47.222;18.670;2023-03-01T04:50:18;101135.88;;;2.45;100.00
67052;BME280;53957;47.222;18.670;2023-03-01T04:53:42;101136.72;;;2.38;100.00
67052;BME280;53957;47.222;18.670;2023-03-01T04:57:10;101129.41;;;2.40;100.00
67052;BME280;53957;47.222;18.670;2023-03-01T05:00:37;101135.50;;;2.41;100.00
67052;BME280;53957;47.222;18.670;2023-03-01T05:03:43;101134.47;;;2.49;100.00
67052;BME280;53957;47.222;18.670;2023-03-01T05:07:06;101137.31;;;2.47;100.00
67052;BME280;53957;47.222;18.670;2023-03-01T05:10:33;101137.06;;;2.55;100.00
67052;BME280;53957;47.222;18.670;2023-03-01T05:13:39;101139.69;;;2.55;100.00
67052;BME280;53957;47.222;18.670;2023-03-01T05:16:47;101141.13;;;2.51;100.00
67052;BME280;53957;47.222;18.670;2023-03-01T05:20:10;101145.19;;;2.54;100.00
67052;BME280;53957;47.222;18.670;2023-03-01T05:23:53;101131.78;;;2.55;100.00
67052;BME280;53957;47.222;18.670;2023-03-01T05:26:57;101135.84;;;2.65;100.00
67052;BME280;53957;47.222;18.670;2023-03-01T05:30:42;101135.03;;;2.57;100.00
67052;BME280;53957;47.222;18.670;2023-03-01T05:34:05;101138.87;;;2.62;100.00
67052;BME280;53957;47.222;18.670;2023-03-01T05:37:10;101152.47;;;2.58;100.00
67052;BME280;53957;47.222;18.670;2023-03-01T05:40:53;101147.16;;;2.65;100.00
67052;BME280;53957;47.222;18.670;2023-03-01T05:44:18;101145.19;;;2.61;100.00
67052;BME280;53957;47.222;18.670;2023-03-01T05:47:43;101147.16;;;2.72;100.00
67052;BME280;53957;47.222;18.670;2023-03-01T05:50:51;101138.44;;;2.71;100.00
67052;BME280;53957;47.222;18.670;2023-03-01T05:54:13;101148.19;;;2.71;100.00
67052;BME280;53957;47.222;18.670;2023-03-01T05:57:22;101149.59;;;2.73;100.00
67052;BME280;53957;47.222;18.670;2023-03-01T06:00:25;101148.41;;;2.69;100.00
67052;BME280;53957;47.222;18.670;2023-03-01T06:03:50;101151.44;;;2.73;100.00
67052;BME280;53957;47.222;18.670;2023-03-01T06:07:13;101161.12;;;2.72;100.00
67052;BME280;53957;47.222;18.670;2023-03-01T06:10:18;101155.25;;;2.77;100.00
67052;BME280;53957;47.222;18.670;2023-03-01T06:13:23;101160.00;;;3.14;100.00
67052;BME280;53957;47.222;18.670;2023-03-01T06:16:47;101162.44;;;3.15;100.00
67052;BME280;53957;47.222;18.670;2023-03-01T06:19:51;101166.06;;;3.14;100.00
67052;BME280;53957;47.222;18.670;2023-03-01T06:22:54;101171.69;;;3.31;100.00
67052;BME280;53957;47.222;18.670;2023-03-01T06:25:58;101173.94;;;3.21;100.00
67052;BME280;53957;47.222;18.670;2023-03-01T06:29:21;101167.88;;;3.20;100.00
67052;BME280;53957;47.222;18.670;2023-03-01T06:32:25;101171.53;;;3.19;100.00
67052;BME280;53957;47.222;18.670;2023-03-01T06:35:29;101180.19;;;3.33;100.00
67052;BME280;53957;47.222;18.670;2023-03-01T06:38:33;101178.47;;;3.14;100.00
67052;BME280;53957;47.222;18.670;2023-03-01T06:41:56;101176.41;;;3.22;100.00
67052;BME280;53957;47.222;18.670;2023-03-01T06:44:59;101184.47;;;3.28;100.00
67052;BME280;53957;47.222;18.670;2023-03-01T06:48:06;101175.13;;;3.32;100.00
67052;BME280;53957;47.222;18.670;2023-03-01T06:51:09;101183.00;;;3.38;100.00
67052;BME280;53957;47.222;18.670;2023-03-01T06:54:18;101177.56;;;3.33;100.00
67052;BME280;53957;47.222;18.670;2023-03-01T06:57:45;101172.47;;;3.32;100.00
67052;BME280;53957;47.222;18.670;2023-03-01T07:00:54;101173.03;;;3.41;100.00
67052;BME280;53957;47.222;18.670;2023-03-01T07:03:57;101162.66;;;3.52;100.00
67052;BME280;53957;47.222;18.670;2023-03-01T07:07:21;101170.50;;;3.59;100.00
67052;BME280;53957;47.222;18.670;2023-03-01T07:10:32;101167.62;;;3.67;100.00
67052;BME280;53957;47.222;18.670;2023-03-01T07:13:44;101172.94;;;3.61;100.00
67052;BME280;53957;47.222;18.670;2023-03-01T07:16:52;101178.16;;;3.74;100.00
67052;BME280;53957;47.222;18.670;2023-03-01T07:20:15;101175.97;;;3.64;100.00
67052;BME280;53957;47.222;18.670;2023-03-01T07:23:28;101186.16;;;3.61;100.00
67052;BME280;53957;47.222;18.670;2023-03-01T07:26:32;101181.25;;;3.64;100.00
67052;BME280;53957;47.222;18.670;2023-03-01T07:29:35;101181.97;;;3.78;100.00
67052;BME280;53957;47.222;18.670;2023-03-01T07:32:58;101182.37;;;3.75;100.00
67052;BME280;53957;47.222;18.670;2023-03-01T07:36:03;101179.72;;;3.82;100.00
67052;BME280;53957;47.222;18.670;2023-03-01T18:26:50;100752.47;;;2.69;100.00
67052;BME280;53957;47.222;18.670;2023-03-01T18:29:55;100763.56;;;2.52;100.00
67052;BME280;53957;47.222;18.670;2023-03-01T18:32:58;100761.56;;;2.48;100.00
67052;BME280;53957;47.222;18.670;2023-03-01T18:36:02;100758.53;;;2.44;100.00
67052;BME280;53957;47.222;18.670;2023-03-01T18:39:06;100761.56;;;2.48;100.00
67052;BME280;53957;47.222;18.670;2023-03-01T18:45:48;100769.34;;;2.36;100.00
67052;BME280;53957;47.222;18.670;2023-03-01T18:48:52;100774.28;;;2.25;100.00
67052;BME280;53957;47.222;18.670;2023-03-01T18:51:56;100774.34;;;2.12;100.00
67052;BME280;53957;47.222;18.670;2023-03-01T18:55:00;100768.31;;;2.05;100.00
67052;BME280;53957;47.222;18.670;2023-03-01T18:58:04;100770.38;;;2.03;100.00
67052;BME280;53957;47.222;18.670;2023-03-01T19:01:24;100772.00;;;2.04;100.00
67052;BME280;53957;47.222;18.670;2023-03-01T19:04:28;100776.50;;;1.97;100.00
67052;BME280;53957;47.222;18.670;2023-03-01T19:07:59;100775.28;;;1.92;100.00
67052;BME280;53957;47.222;18.670;2023-03-01T19:11:15;100779.41;;;1.82;100.00
67052;BME280;53957;47.222;18.670;2023-03-01T19:14:41;100786.72;;;1.73;100.00
67052;BME280;53957;47.222;18.670;2023-03-01T19:17:44;100785.34;;;1.64;100.00
67052;BME280;53957;47.222;18.670;2023-03-01T19:21:01;100784.38;;;1.51;100.00
67052;BME280;53957;47.222;18.670;2023-03-01T19:24:44;100790.25;;;1.47;100.00
67052;BME280;53957;47.222;18.670;2023-03-01T19:28:09;100790.44;;;1.52;100.00
67052;BME280;53957;47.222;18.670;2023-03-01T19:35:57;100803.00;;;1.43;100.00
67052;BME280;53957;47.222;18.670;2023-03-01T19:39:25;100803.03;;;1.36;100.00
67052;BME280;53957;47.222;18.670;2023-03-01T19:46:39;100808.94;;;1.25;100.00
67052;BME280;53957;47.222;18.670;2023-03-01T19:50:04;100826.13;;;1.14;100.00
67052;BME280;53957;47.222;18.670;2023-03-01T19:53:28;100811.22;;;0.88;100.00
67052;BME280;53957;47.222;18.670;2023-03-01T19:56:48;100816.47;;;0.88;100.00
67052;BME280;53957;47.222;18.670;2023-03-01T20:00:35;100819.50;;;0.78;100.00
67052;BME280;53957;47.222;18.670;2023-03-01T20:15:20;100820.91;;;0.47;100.00
67052;BME280;53957;47.222;18.670;2023-03-01T20:18:26;100824.53;;;0.46;100.00
67052;BME280;53957;47.222;18.670;2023-03-01T20:21:49;100819.66;;;0.36;100.00
67052;BME280;53957;47.222;18.670;2023-03-01T20:24:52;100820.47;;;0.50;100.00
67052;BME280;53957;47.222;18.670;2023-03-01T20:28:41;100820.25;;;0.31;100.00
67052;BME280;53957;47.222;18.670;2023-03-01T20:32:24;100820.47;;;0.37;100.00
67052;BME280;53957;47.222;18.670;2023-03-01T20:35:52;100823.28;;;0.42;100.00
67052;BME280;53957;47.222;18.670;2023-03-01T20:39:38;100820.66;;;0.42;100.00
67052;BME280;53957;47.222;18.670;2023-03-01T20:42:41;100813.81;;;0.41;100.00
67052;BME280;53957;47.222;18.670;2023-03-01T20:45:44;100816.84;;;0.38;100.00
67052;BME280;53957;47.222;18.670;2023-03-01T20:48:48;100814.00;;;0.39;100.00
67052;BME280;53957;47.222;18.670;2023-03-01T20:51:52;100812.38;;;0.31;100.00
67052;BME280;53957;47.222;18.670;2023-03-01T20:54:55;100812.34;;;0.18;100.00
67052;BME280;53957;47.222;18.670;2023-03-01T20:58:14;100816.37;;;0.14;100.00
67052;BME280;53957;47.222;18.670;2023-03-01T21:01:37;100809.72;;;0.11;100.00
67052;BME280;53957;47.222;18.670;2023-03-01T21:05:21;100801.22;;;0.03;100.00
67052;BME280;53957;47.222;18.670;2023-03-01T21:08:29;100807.06;;;0.05;100.00
67052;BME280;53957;47.222;18.670;2023-03-01T21:12:13;100805.81;;;-0.06;100.00
67052;BME280;53957;47.222;18.670;2023-03-01T21:15:36;100812.28;;;-0.09;100.00
67052;BME280;53957;47.222;18.670;2023-03-01T21:18:40;100807.44;;;-0.12;100.00
67052;BME280;53957;47.222;18.670;2023-03-01T21:21:43;100807.22;;;-0.17;100.00
67052;BME280;53957;47.222;18.670;2023-03-01T21:24:47;100809.81;;;-0.24;100.00
67052;BME280;53957;47.222;18.670;2023-03-01T21:27:52;100810.37;;;-0.35;100.00
67052;BME280;53957;47.222;18.670;2023-03-01T21:30:56;100806.75;;;-0.34;100.00
67052;BME280;53957;47.222;18.670;2023-03-01T21:34:18;100810.56;;;-0.37;100.00
67052;BME280;53957;47.222;18.670;2023-03-01T21:37:21;100807.13;;;-0.37;100.00
67052;BME280;53957;47.222;18.670;2023-03-01T21:40:50;100812.56;;;-0.39;100.00
67052;BME280;53957;47.222;18.670;2023-03-01T21:43:55;100819.00;;;-0.48;100.00
67052;BME280;53957;47.222;18.670;2023-03-01T21:46:59;100811.28;;;-0.56;100.00
67052;BME280;53957;47.222;18.670;2023-03-01T21:50:42;100811.91;;;-0.54;100.00
67052;BME280;53957;47.222;18.670;2023-03-01T21:53:45;100816.13;;;-0.53;100.00
67052;BME280;53957;47.222;18.670;2023-03-01T21:56:48;100823.34;;;-0.62;100.00
67052;BME280;53957;47.222;18.670;2023-03-01T22:00:12;100817.94;;;-0.60;100.00
67052;BME280;53957;47.222;18.670;2023-03-01T22:03:38;100817.72;;;-0.59;100.00
67052;BME280;53957;47.222;18.670;2023-03-01T22:06:49;100818.91;;;-0.61;100.00
67052;BME280;53957;47.222;18.670;2023-03-01T22:09:56;100816.50;;;-0.63;100.00
67052;BME280;53957;47.222;18.670;2023-03-01T22:12:59;100812.75;;;-0.82;100.00
67052;BME280;53957;47.222;18.670;2023-03-01T22:16:02;100812.38;;;-0.79;100.00
67052;BME280;53957;47.222;18.670;2023-03-01T22:19:07;100817.56;;;-0.51;100.00
67052;BME280;53957;47.222;18.670;2023-03-01T22:22:30;100813.09;;;-0.02;100.00
67052;BME280;53957;47.222;18.670;2023-03-01T22:25:40;100821.59;;;0.07;100.00
67052;BME280;53957;47.222;18.670;2023-03-01T22:28:43;100823.25;;;0.22;100.00
67052;BME280;53957;47.222;18.670;2023-03-01T22:31:49;100822.25;;;0.29;100.00
67052;BME280;53957;47.222;18.670;2023-03-01T22:35:29;100817.22;;;0.28;100.00
67052;BME280;53957;47.222;18.670;2023-03-01T22:42:38;100814.41;;;0.36;100.00
67052;BME280;53957;47.222;18.670;2023-03-01T22:45:42;100814.19;;;0.18;100.00
67052;BME280;53957;47.222;18.670;2023-03-01T22:49:25;100813.94;;;-0.01;100.00
67052;BME280;53957;47.222;18.670;2023-03-01T22:52:28;100814.81;;;0.26;100.00
67052;BME280;53957;47.222;18.670;2023-03-01T22:55:34;100812.75;;;0.28;100.00
67052;BME280;53957;47.222;18.670;2023-03-01T22:59:06;100817.44;;;0.26;100.00
67052;BME280;53957;47.222;18.670;2023-03-01T23:02:12;100821.06;;;0.19;100.00
67052;BME280;53957;47.222;18.670;2023-03-01T23:05:19;100812.94;;;0.00;100.00
67052;BME280;53957;47.222;18.670;2023-03-01T23:08:23;100810.84;;;-0.18;100.00
67052;BME280;53957;47.222;18.670;2023-03-01T23:11:28;100806.81;;;-0.21;100.00
67052;BME280;53957;47.222;18.670;2023-03-01T23:14:35;100814.94;;;0.05;100.00
67052;BME280;53957;47.222;18.670;2023-03-01T23:17:59;100814.69;;;-0.14;100.00
67052;BME280;53957;47.222;18.670;2023-03-01T23:21:08;100816.19;;;0.09;100.00
67052;BME280;53957;47.222;18.670;2023-03-01T23:24:15;100817.09;;;-0.19;100.00
67052;BME280;53957;47.222;18.670;2023-03-01T23:27:18;100814.56;;;-0.41;100.00
67052;BME280;53957;47.222;18.670;2023-03-01T23:30:24;100819.94;;;-0.56;100.00
67052;BME280;53957;47.222;18.670;2023-03-01T23:33:27;100823.59;;;-0.57;100.00
67052;BME280;53957;47.222;18.670;2023-03-01T23:36:33;100818.16;;;-0.55;100.00
67052;BME280;53957;47.222;18.670;2023-03-01T23:39:37;100821.56;;;-0.55;100.00
67052;BME280;53957;47.222;18.670;2023-03-01T23:42:42;100824.03;;;-0.82;100.00
67052;BME280;53957;47.222;18.670;2023-03-01T23:45:47;100818.56;;;-0.87;100.00
67052;BME280;53957;47.222;18.670;2023-03-01T23:49:15;100822.78;;;-0.86;100.00
67052;BME280;53957;47.222;18.670;2023-03-01T23:52:58;100821.50;;;-0.97;100.00
67052;BME280;53957;47.222;18.670;2023-03-01T23:56:03;100825.94;;;-0.97;100.00
67052;BME280;53957;47.222;18.670;2023-03-01T23:59:35;100815.84;;;-1.00;100.00
